Kezdőlap
METAR-TAF:

METAR-TAF

Repülőterek :

Mount Pleasant Regional Airport

Mount Pleasant, Texas, Amerikai Egyesült Államok

földrajzi szélesség: 33-05-43N, földrajzi hosszúság: 094-57-41W, magasság: 111 m

Jelenlegi meteorológiai megfigyelések

A jelentés 12 perccel ezelõtt készült, 01:15 UTC
Kelet-délkeleti szél 4 kt
Hőmérséklet 26°C
Páratartalom 84%
Légköri nyomás 1019 hPa
Látótávolság: 11.3 km
Derült ég
Száraz légköri homály

METAR: KOSA 250115Z AUTO 12004KT 7SM HZ CLR 26/23 A3009 RMK AO2 T02640233

Idő: 20:27 (01:27 UTC)


TAF: hiányzik

Meteorológiai megfigyelések és előrejelzések több, mint 4000 repülőtéren (METAR és TAF jelentéseket).

A térképen piros és sárga pontok jelzik az elérhető meteorológiai állomásokat.

Mozgassa az egeret a pont fölött, hogy megjelenjen az állomás neve.

Azután kattintson az időjárási megfigyelések és előrejelzések megtekintéséhez.

A térkép megváltoztatása: kattintson a fekete keresztel jelölt zöld gombra ráközelítéshez, a vonallal jelölt zöld gombra távolításhoz, vagy a zöld nyilakra a szomszédos térképek eléréséhez.


METAR-TAF: